Time;durP1;ratioP1;P1;durP2;ratioP2;P2;SDS_P1;SDS_P2;PMS_P1;PMS_P2;Temp;Humidity;BMP_temperature;BMP_pressure;BME280_temperature;BME280_humidity;BME280_pressure;Samples;Min_cycle;Max_cycle;Signal;HPM_P1;HPM_P2
2021/12/18 00:00:50;;;;;;;14.65;11.40;;;10.10;68.40;;;;;;5067226;28;20032;-75
2021/12/18 00:03:17;;;;;;;13.95;11.60;;;10.20;68.60;;;;;;5049578;28;20024;-75
2021/12/18 00:05:44;;;;;;;13.88;11.77;;;10.20;68.60;;;;;;5067222;28;20032;-75
2021/12/18 00:08:10;;;;;;;15.95;11.88;;;10.10;68.50;;;;;;5067759;28;20484;-75
2021/12/18 00:10:37;;;;;;;15.70;11.75;;;10.20;68.70;;;;;;5067496;28;20056;-74
2021/12/18 00:13:03;;;;;;;15.25;10.75;;;10.10;68.50;;;;;;5046682;28;20112;-75
2021/12/18 00:15:30;;;;;;;14.93;11.43;;;10.20;68.70;;;;;;5048625;28;20037;-75
2021/12/18 00:17:56;;;;;;;15.77;12.18;;;10.10;68.50;;;;;;5047380;28;20536;-75
2021/12/18 00:20:25;;;;;;;14.90;11.95;;;10.10;68.50;;;;;;5047939;28;20561;-74
2021/12/18 00:22:51;;;;;;;12.75;10.40;;;10.10;68.60;;;;;;5049348;28;20039;-75
2021/12/18 00:25:17;;;;;;;15.23;12.35;;;10.10;68.60;;;;;;5067064;28;20028;-75
2021/12/18 00:27:44;;;;;;;15.15;11.95;;;10.10;68.70;;;;;;5049081;28;20466;-74
2021/12/18 00:30:11;;;;;;;13.88;11.23;;;10.10;68.70;;;;;;5048987;28;20040;-74
2021/12/18 00:32:37;;;;;;;14.43;11.27;;;10.10;68.70;;;;;;5048911;28;20032;-74
2021/12/18 00:35:04;;;;;;;15.20;12.23;;;10.10;68.70;;;;;;5066946;28;20032;-74
2021/12/18 00:37:30;;;;;;;13.82;10.82;;;10.10;68.70;;;;;;5067236;28;20025;-75
2021/12/18 00:39:59;;;;;;;15.18;11.50;;;10.20;68.90;;;;;;5066771;28;20028;-75
2021/12/18 00:45:02;;;;;;;14.73;11.55;;;10.20;68.90;;;;;;5066688;28;20037;-75
2021/12/18 00:47:28;;;;;;;14.75;11.00;;;10.10;68.70;;;;;;5047643;28;20029;-75
2021/12/18 00:49:54;;;;;;;14.13;10.88;;;10.20;68.90;;;;;;5028752;28;20041;-75
2021/12/18 00:52:20;;;;;;;12.77;11.02;;;10.20;69.40;;;;;;5029136;28;20033;-74
2021/12/18 00:54:46;;;;;;;13.57;10.25;;;10.10;68.70;;;;;;5046270;28;20135;-75
2021/12/18 00:57:12;;;;;;;13.43;11.27;;;10.20;68.90;;;;;;5046341;28;20028;-75
2021/12/18 00:59:38;;;;;;;12.25;10.93;;;10.10;68.80;;;;;;5047010;28;20033;-75
2021/12/18 01:02:04;;;;;;;14.48;10.57;;;10.20;69.00;;;;;;5029176;28;20041;-74
2021/12/18 01:04:30;;;;;;;13.85;11.40;;;10.20;69.00;;;;;;5047014;28;20067;-74
2021/12/18 01:06:56;;;;;;;14.43;12.10;;;10.20;69.00;;;;;;5046685;28;20100;-75
2021/12/18 01:09:35;;;;;;;12.68;11.27;;;10.20;69.10;;;;;;5046521;28;20531;-74
2021/12/18 01:12:01;;;;;;;13.82;11.27;;;10.10;68.90;;;;;;5046101;28;20119;-74
2021/12/18 01:24:57;;;;;;;15.80;11.85;;;10.10;69.00;;;;;;5044975;28;20547;-74
2021/12/18 01:27:23;;;;;;;14.80;12.18;;;10.10;69.00;;;;;;5046128;28;20037;-74
2021/12/18 01:29:49;;;;;;;14.93;11.55;;;10.20;69.20;;;;;;5046283;28;20041;-74
2021/12/18 01:32:15;;;;;;;14.77;11.73;;;10.20;69.20;;;;;;5046192;28;20128;-74
2021/12/18 01:34:41;;;;;;;15.40;12.10;;;10.10;69.10;;;;;;5045706;28;20106;-74
2021/12/18 01:37:08;;;;;;;14.27;11.98;;;10.20;69.20;;;;;;5046120;28;20055;-74
2021/12/18 01:39:34;;;;;;;15.25;12.05;;;10.20;69.20;;;;;;5045877;28;20036;-75
2021/12/18 01:52:38;;;;;;;15.30;12.57;;;10.20;69.20;;;;;;5045519;28;20029;-75
2021/12/18 01:55:05;;;;;;;17.05;12.52;;;10.30;69.40;;;;;;5027842;28;20049;-74
2021/12/18 01:57:32;;;;;;;15.27;11.75;;;10.30;69.40;;;;;;5027733;28;20056;-75
2021/12/18 01:59:58;;;;;;;16.45;12.70;;;10.30;69.40;;;;;;5045466;28;20033;-75
2021/12/18 02:02:24;;;;;;;15.10;11.93;;;10.30;69.40;;;;;;5027641;28;20111;-75
2021/12/18 02:04:50;;;;;;;16.15;12.20;;;10.30;69.40;;;;;;5045577;28;20033;-74
2021/12/18 02:07:17;;;;;;;15.82;12.10;;;10.30;69.40;;;;;;5046650;28;20397;-74
2021/12/18 02:10:01;;;;;;;14.90;12.13;;;10.30;69.50;;;;;;5027369;28;20048;-74
2021/12/18 02:12:39;;;;;;;14.48;12.85;;;10.30;69.50;;;;;;5027879;28;20029;-74
2021/12/18 02:23:01;;;;;;;16.10;12.10;;;10.30;69.50;;;;;;5008034;28;20104;-74
2021/12/18 02:25:30;;;;;;;14.90;12.00;;;10.30;69.50;;;;;;5025597;28;20531;-74
2021/12/18 02:27:56;;;;;;;16.90;13.48;;;10.30;69.60;;;;;;5007342;28;20482;-75
2021/12/18 02:30:23;;;;;;;17.65;13.20;;;10.30;69.50;;;;;;5025464;28;20045;-73
2021/12/18 02:32:50;;;;;;;17.83;12.98;;;10.30;69.50;;;;;;5030684;28;20037;-74
2021/12/18 02:35:28;;;;;;;18.73;13.90;;;10.30;69.60;;;;;;5028510;28;20033;-74
2021/12/18 02:38:09;;;;;;;15.52;12.30;;;10.30;69.60;;;;;;5031475;28;20060;-74
2021/12/18 02:43:16;;;;;;;14.38;12.65;;;10.30;69.60;;;;;;5031450;28;20057;-74
2021/12/18 02:45:42;;;;;;;15.27;12.65;;;10.30;69.60;;;;;;5029991;28;20550;-74
2021/12/18 02:48:08;;;;;;;16.15;12.70;;;10.30;69.70;;;;;;5034261;28;20072;-74
2021/12/18 02:50:39;;;;;;;17.52;13.77;;;10.30;69.70;;;;;;5033868;28;20049;-74
2021/12/18 02:53:06;;;;;;;15.32;12.90;;;10.30;69.70;;;;;;5034141;28;20025;-74
2021/12/18 02:55:32;;;;;;;16.67;12.75;;;10.30;69.70;;;;;;5033673;28;20489;-75
2021/12/18 02:57:58;;;;;;;15.88;12.65;;;10.30;69.80;;;;;;5033170;28;20112;-74
2021/12/18 03:00:26;;;;;;;16.13;13.10;;;10.30;69.80;;;;;;5049175;28;20187;-74
2021/12/18 03:02:52;;;;;;;17.63;13.10;;;10.30;69.80;;;;;;5032959;28;20041;-74
2021/12/18 03:05:26;;;;;;;17.15;14.20;;;10.30;69.80;;;;;;5032302;28;20112;-74
2021/12/18 03:07:59;;;;;;;16.17;13.25;;;10.30;69.80;;;;;;5031809;28;20391;-74
2021/12/18 03:26:54;;;;;;;15.50;12.65;;;10.30;69.80;;;;;;5015700;28;20042;-74
2021/12/18 03:29:20;;;;;;;15.43;12.20;;;10.30;69.80;;;;;;5032639;28;20588;-74
2021/12/18 03:31:46;;;;;;;14.95;12.43;;;10.30;69.90;;;;;;5033288;28;20036;-74
2021/12/18 03:34:12;;;;;;;16.20;12.32;;;10.30;69.90;;;;;;5033285;28;20034;-74
2021/12/18 03:36:38;;;;;;;14.82;13.05;;;10.30;69.90;;;;;;5031959;28;20033;-75
2021/12/18 03:39:04;;;;;;;13.63;11.75;;;10.30;70.00;;;;;;5033001;28;20082;-74
2021/12/18 03:41:30;;;;;;;14.45;12.10;;;10.30;70.00;;;;;;5032894;28;20030;-74
2021/12/18 03:43:56;;;;;;;15.57;12.55;;;10.30;70.00;;;;;;5032761;28;20037;-74
2021/12/18 03:46:22;;;;;;;14.88;13.27;;;10.30;70.00;;;;;;5033057;28;20025;-74
2021/12/18 03:48:48;;;;;;;13.77;12.30;;;10.20;69.90;;;;;;5043674;28;20052;-74
2021/12/18 03:51:14;;;;;;;13.43;11.98;;;10.30;70.10;;;;;;5052768;28;20029;-74
2021/12/18 03:53:40;;;;;;;13.93;11.95;;;10.30;70.10;;;;;;5052535;28;20036;-74
2021/12/18 03:56:06;;;;;;;13.23;11.32;;;10.30;70.10;;;;;;5052681;28;20028;-74
2021/12/18 03:58:32;;;;;;;13.77;11.85;;;10.30;70.10;;;;;;5051704;28;20115;-74
2021/12/18 04:00:58;;;;;;;12.63;11.10;;;10.30;70.10;;;;;;5052516;28;20028;-74
2021/12/18 04:03:24;;;;;;;14.15;12.32;;;10.30;70.10;;;;;;5060065;28;20032;-74
2021/12/18 04:05:50;;;;;;;13.57;12.15;;;10.30;70.10;;;;;;5072508;28;20028;-74
2021/12/18 04:08:16;;;;;;;12.75;11.38;;;10.30;70.10;;;;;;5054700;28;20101;-75
2021/12/18 04:10:43;;;;;;;14.00;11.85;;;10.30;70.10;;;;;;5072427;28;20036;-74
2021/12/18 04:13:09;;;;;;;12.90;11.07;;;10.30;70.10;;;;;;5054055;28;20025;-75
2021/12/18 04:15:37;;;;;;;12.55;10.73;;;10.30;70.10;;;;;;5072183;28;20094;-74
2021/12/18 04:18:03;;;;;;;11.90;10.63;;;10.30;70.10;;;;;;5069141;28;20483;-74
2021/12/18 04:20:30;;;;;;;12.75;10.82;;;10.30;70.10;;;;;;5052233;28;20374;-74
2021/12/18 04:22:56;;;;;;;11.60;9.98;;;10.30;70.20;;;;;;5051774;28;20257;-75
2021/12/18 04:25:22;;;;;;;12.13;10.73;;;10.30;70.20;;;;;;5052074;28;20033;-74
2021/12/18 04:27:49;;;;;;;12.25;10.95;;;10.30;70.20;;;;;;5052543;28;20056;-74
2021/12/18 04:30:15;;;;;;;11.10;9.90;;;10.30;70.20;;;;;;5034167;28;20071;-74
2021/12/18 04:32:41;;;;;;;13.52;11.35;;;10.30;70.20;;;;;;5052315;28;20082;-73
2021/12/18 04:35:08;;;;;;;11.88;10.40;;;10.30;70.30;;;;;;5051710;28;20041;-74
2021/12/18 04:37:34;;;;;;;11.82;10.55;;;10.30;70.80;;;;;;5052034;28;20460;-75
2021/12/18 04:40:00;;;;;;;12.25;10.70;;;10.30;70.30;;;;;;5033924;28;20031;-74
2021/12/18 04:42:27;;;;;;;12.48;11.18;;;10.30;70.30;;;;;;5051748;28;20032;-74
2021/12/18 04:44:53;;;;;;;11.68;9.95;;;10.30;70.40;;;;;;5051364;28;20029;-74
2021/12/18 04:47:19;;;;;;;10.73;9.60;;;10.30;70.40;;;;;;5051876;28;20060;-75
2021/12/18 04:49:44;;;;;;;12.27;10.38;;;10.30;70.40;;;;;;5051815;28;20080;-74
2021/12/18 04:52:11;;;;;;;13.65;10.63;;;10.30;70.40;;;;;;5051504;28;20082;-74
2021/12/18 04:54:37;;;;;;;11.68;10.30;;;10.30;70.40;;;;;;5051682;28;20087;-74
2021/12/18 04:57:04;;;;;;;12.85;11.55;;;10.30;70.40;;;;;;5034173;28;20144;-74
2021/12/18 04:59:30;;;;;;;13.93;10.80;;;10.30;70.40;;;;;;5033241;28;20162;-76
2021/12/18 05:01:56;;;;;;;12.00;9.70;;;10.30;70.40;;;;;;5051825;28;20111;-76
2021/12/18 05:04:22;;;;;;;12.43;11.13;;;10.30;70.40;;;;;;5051397;28;20409;-75
2021/12/18 05:06:50;;;;;;;12.85;11.27;;;10.30;70.40;;;;;;5033894;28;20025;-76
2021/12/18 05:09:17;;;;;;;12.05;10.85;;;10.30;70.40;;;;;;5018440;28;20168;-75
2021/12/18 05:11:44;;;;;;;11.68;10.27;;;10.30;70.40;;;;;;4994221;28;20038;-74
2021/12/18 05:14:10;;;;;;;12.80;10.63;;;10.30;70.40;;;;;;5010623;28;20041;-75
2021/12/18 05:16:36;;;;;;;11.48;10.27;;;10.30;70.40;;;;;;5011667;28;20034;-75
2021/12/18 05:19:03;;;;;;;12.85;10.80;;;10.30;70.50;;;;;;5025529;28;20041;-74
2021/12/18 05:21:30;;;;;;;13.38;11.02;;;10.30;70.50;;;;;;5033529;28;20739;-75
2021/12/18 05:23:56;;;;;;;13.05;11.32;;;10.30;70.50;;;;;;5051027;28;20036;-75
2021/12/18 05:26:22;;;;;;;12.77;11.40;;;10.30;70.50;;;;;;5050628;28;20029;-75
2021/12/18 05:28:47;;;;;;;12.40;10.82;;;10.30;70.50;;;;;;5050517;28;20431;-74
2021/12/18 05:31:16;;;;;;;13.23;11.80;;;10.30;70.50;;;;;;5033119;28;20037;-74
2021/12/18 05:33:47;;;;;;;12.55;11.25;;;10.30;70.60;;;;;;5051030;28;20121;-74
2021/12/18 05:36:31;;;;;;;12.65;10.85;;;10.30;70.60;;;;;;5050768;28;20106;-74
2021/12/18 05:39:06;;;;;;;12.00;10.70;;;10.30;70.60;;;;;;5050951;28;20388;-74
2021/12/18 05:41:33;;;;;;;15.27;12.05;;;10.30;70.60;;;;;;5033078;28;20083;-75
2021/12/18 05:43:59;;;;;;;13.13;11.73;;;10.30;70.60;;;;;;5033074;28;20326;-75
2021/12/18 05:46:26;;;;;;;12.35;11.00;;;10.30;70.60;;;;;;5033267;28;20116;-74
2021/12/18 05:48:52;;;;;;;14.60;12.82;;;10.20;70.40;;;;;;5033354;28;20037;-74
2021/12/18 05:51:18;;;;;;;13.18;11.77;;;10.20;70.40;;;;;;5027745;28;20437;-74
2021/12/18 05:53:44;;;;;;;15.18;12.63;;;10.30;70.60;;;;;;5027188;28;20033;-74
2021/12/18 05:56:11;;;;;;;13.80;12.23;;;10.20;70.40;;;;;;5009999;28;20061;-75
2021/12/18 05:58:37;;;;;;;15.07;13.48;;;10.30;70.60;;;;;;5027093;28;20037;-74
2021/12/18 06:01:03;;;;;;;14.23;12.32;;;10.30;70.60;;;;;;5027071;28;20052;-74
2021/12/18 06:03:29;;;;;;;14.88;13.02;;;10.30;70.50;;;;;;5025736;28;20043;-74
2021/12/18 06:05:55;;;;;;;13.38;11.98;;;10.30;70.50;;;;;;5027318;28;20026;-73
2021/12/18 06:08:21;;;;;;;15.60;13.55;;;10.30;70.50;;;;;;5029972;28;20061;-74
2021/12/18 06:10:46;;;;;;;14.23;12.43;;;10.30;70.50;;;;;;5029892;28;20079;-75
2021/12/18 06:13:14;;;;;;;15.23;13.63;;;10.30;70.50;;;;;;5029081;28;20025;-74
2021/12/18 06:15:40;;;;;;;14.77;13.20;;;10.30;70.50;;;;;;5011775;28;20029;-74
2021/12/18 06:18:06;;;;;;;14.93;12.88;;;10.30;70.50;;;;;;5028270;28;20029;-74
2021/12/18 06:20:32;;;;;;;14.75;12.10;;;10.30;70.50;;;;;;5009867;28;20247;-74
2021/12/18 06:22:58;;;;;;;14.50;12.98;;;10.30;70.50;;;;;;5011596;28;20030;-74
2021/12/18 06:25:24;;;;;;;16.10;13.07;;;10.30;70.50;;;;;;5011714;28;20481;-75
2021/12/18 06:27:50;;;;;;;15.20;13.60;;;10.30;70.50;;;;;;5028665;28;20087;-75
2021/12/18 06:30:18;;;;;;;14.63;12.88;;;10.30;70.50;;;;;;5027291;28;20203;-75
2021/12/18 06:32:44;;;;;;;17.33;15.23;;;10.30;70.50;;;;;;5029811;28;20025;-75
2021/12/18 06:35:10;;;;;;;15.55;13.02;;;10.30;70.50;;;;;;5048906;28;20404;-74
2021/12/18 06:37:37;;;;;;;14.73;13.23;;;10.30;70.50;;;;;;5048866;28;20028;-75
2021/12/18 06:40:05;;;;;;;16.27;13.15;;;10.30;70.50;;;;;;5049149;28;20048;-75
2021/12/18 06:42:31;;;;;;;17.52;14.52;;;10.30;70.50;;;;;;5049664;28;20078;-75
2021/12/18 06:44:57;;;;;;;17.20;13.30;;;10.30;70.50;;;;;;5028808;28;20539;-73
2021/12/18 06:47:23;;;;;;;14.85;12.55;;;10.30;70.50;;;;;;5029038;28;20122;-75
2021/12/18 06:49:49;;;;;;;15.32;13.18;;;10.30;70.60;;;;;;5028874;28;20263;-74
2021/12/18 06:52:15;;;;;;;14.15;12.00;;;10.30;70.80;;;;;;5024903;28;20036;-75
2021/12/18 06:54:41;;;;;;;15.15;12.07;;;10.40;71.00;;;;;;5012874;28;20029;-74
2021/12/18 06:57:07;;;;;;;15.02;12.65;;;10.40;71.00;;;;;;5026619;28;20034;-74
2021/12/18 06:59:33;;;;;;;15.48;12.95;;;10.40;71.00;;;;;;5017236;28;20156;-74
2021/12/18 07:01:59;;;;;;;14.95;13.07;;;10.40;70.90;;;;;;5008616;28;20112;-74
2021/12/18 07:04:25;;;;;;;14.52;13.02;;;10.40;70.90;;;;;;5027213;28;20029;-74
2021/12/18 07:06:52;;;;;;;14.20;12.70;;;10.50;71.00;;;;;;5025344;28;20306;-74
2021/12/18 07:09:19;;;;;;;15.50;13.32;;;10.50;71.00;;;;;;5028014;28;20069;-75
2021/12/18 07:11:46;;;;;;;14.18;12.68;;;10.50;71.00;;;;;;5028665;28;20034;-72
2021/12/18 07:14:12;;;;;;;14.30;12.77;;;10.50;71.00;;;;;;5027939;28;20124;-72
2021/12/18 07:16:39;;;;;;;14.90;13.05;;;10.50;71.00;;;;;;5027694;28;20037;-74
2021/12/18 07:19:05;;;;;;;14.35;12.40;;;10.50;71.00;;;;;;5010953;28;20044;-74
2021/12/18 07:21:31;;;;;;;15.32;13.48;;;10.50;71.00;;;;;;5028329;28;20029;-75
2021/12/18 07:23:57;;;;;;;14.38;12.63;;;10.50;71.00;;;;;;5010644;28;20037;-74
2021/12/18 07:26:23;;;;;;;14.98;11.73;;;10.50;71.00;;;;;;5028659;28;20538;-74
2021/12/18 07:28:49;;;;;;;16.45;11.98;;;10.50;71.00;;;;;;5028018;28;20041;-74
2021/12/18 07:31:16;;;;;;;13.73;12.05;;;10.50;71.00;;;;;;5027983;28;20030;-73
2021/12/18 07:33:43;;;;;;;13.70;12.18;;;10.50;71.10;;;;;;5028696;28;20044;-75
2021/12/18 07:36:10;;;;;;;13.02;11.65;;;10.50;71.10;;;;;;5028353;28;20400;-76
2021/12/18 07:38:36;;;;;;;15.02;11.00;;;10.50;71.10;;;;;;5028104;28;20418;-74
2021/12/18 07:41:02;;;;;;;15.48;10.60;;;10.50;71.20;;;;;;5028048;28;20035;-84
2021/12/18 07:43:28;;;;;;;13.95;11.23;;;10.60;71.90;;;;;;5027199;28;20473;-73
2021/12/18 07:45:54;;;;;;;14.02;11.00;;;10.60;72.10;;;;;;5028231;28;20477;-74
2021/12/18 07:48:20;;;;;;;13.18;10.15;;;10.70;72.20;;;;;;5024286;28;20052;-74
2021/12/18 07:50:46;;;;;;;14.07;10.73;;;10.80;72.50;;;;;;5027512;28;20061;-74
2021/12/18 07:53:12;;;;;;;12.68;9.82;;;10.80;72.50;;;;;;5016750;28;20469;-75
2021/12/18 07:55:38;;;;;;;12.75;10.05;;;10.90;72.70;;;;;;5021020;28;20034;-74
2021/12/18 07:58:05;;;;;;;12.02;10.68;;;10.90;72.60;;;;;;5012699;28;20033;-74
2021/12/18 08:00:31;;;;;;;13.95;8.75;;;10.90;72.60;;;;;;5010060;28;20033;-72
2021/12/18 08:02:57;;;;;;;10.43;9.27;;;10.90;72.60;;;;;;5013985;28;20029;-74
2021/12/18 08:05:23;;;;;;;11.48;8.75;;;10.90;72.90;;;;;;5026540;28;20033;-74
2021/12/18 08:07:49;;;;;;;13.07;9.20;;;11.00;73.50;;;;;;5027608;28;20380;-74
2021/12/18 08:10:15;;;;;;;12.65;9.68;;;11.00;73.60;;;;;;5026167;28;20458;-74
2021/12/18 08:12:42;;;;;;;11.50;9.55;;;11.10;73.80;;;;;;5026692;28;20104;-74
2021/12/18 08:15:08;;;;;;;11.32;9.48;;;11.10;73.80;;;;;;5026370;28;20045;-73
2021/12/18 08:17:35;;;;;;;14.43;8.75;;;11.10;73.80;;;;;;5027271;28;20040;-74
2021/12/18 08:20:06;;;;;;;11.35;8.75;;;11.10;73.80;;;;;;5026091;28;20034;-74
2021/12/18 08:22:32;;;;;;;13.02;8.40;;;11.10;74.30;;;;;;5027276;28;20461;-74
2021/12/18 08:24:58;;;;;;;11.80;8.38;;;11.20;74.60;;;;;;5027816;28;20113;-74
2021/12/18 08:27:24;;;;;;;10.05;7.65;;;11.20;74.60;;;;;;4995228;28;20133;-73
2021/12/18 08:29:50;;;;;;;10.55;7.13;;;11.30;74.70;;;;;;5024546;28;20072;-74
2021/12/18 08:32:16;;;;;;;9.93;7.85;;;11.30;74.70;;;;;;5024783;28;20029;-73
2021/12/18 08:34:42;;;;;;;11.27;8.27;;;11.30;74.70;;;;;;5026139;28;20029;-74
2021/12/18 08:37:08;;;;;;;10.80;8.38;;;11.30;74.70;;;;;;5024731;28;20037;-75
2021/12/18 08:39:34;;;;;;;8.88;7.72;;;11.30;74.70;;;;;;5022637;28;20037;-74
2021/12/18 08:42:03;;;;;;;8.63;7.38;;;11.20;74.50;;;;;;5007897;28;20087;-75
2021/12/18 08:44:30;;;;;;;10.45;7.80;;;11.20;74.50;;;;;;5025172;28;20072;-75
2021/12/18 08:46:56;;;;;;;9.75;7.65;;;11.20;74.50;;;;;;5008691;28;20056;-75
2021/12/18 08:49:23;;;;;;;9.73;7.80;;;11.20;74.40;;;;;;5026153;28;20049;-75
2021/12/18 08:51:49;;;;;;;11.20;8.98;;;11.20;74.40;;;;;;5026200;28;20029;-74
2021/12/18 08:54:15;;;;;;;10.80;8.70;;;11.20;74.40;;;;;;5025821;28;20075;-74
2021/12/18 08:56:40;;;;;;;9.57;8.35;;;11.10;74.20;;;;;;5008575;28;20034;-74
2021/12/18 08:59:06;;;;;;;10.85;7.95;;;11.10;74.20;;;;;;5026758;28;20040;-74
2021/12/18 09:01:33;;;;;;;12.82;9.82;;;11.10;74.20;;;;;;5008644;28;20490;-74
2021/12/18 09:03:59;;;;;;;10.95;7.72;;;11.10;74.20;;;;;;5026064;28;20034;-75
2021/12/18 09:06:26;;;;;;;11.35;8.85;;;11.10;74.20;;;;;;5020729;28;20548;-73
2021/12/18 09:08:53;;;;;;;11.80;9.60;;;11.10;74.10;;;;;;5025764;28;20081;-74
2021/12/18 09:11:20;;;;;;;9.68;8.50;;;11.10;74.10;;;;;;5008883;28;20219;-75
2021/12/18 09:13:48;;;;;;;10.20;8.02;;;11.10;74.10;;;;;;5024347;28;20033;-74
2021/12/18 09:16:14;;;;;;;11.05;9.25;;;11.00;73.90;;;;;;5026450;28;20179;-74
2021/12/18 09:18:40;;;;;;;10.82;8.70;;;11.10;74.00;;;;;;5008459;28;20060;-75
2021/12/18 09:21:06;;;;;;;11.40;7.80;;;11.00;73.90;;;;;;5026618;28;20060;-73
2021/12/18 09:23:32;;;;;;;9.05;7.20;;;11.10;74.30;;;;;;5026029;28;20396;-73
2021/12/18 09:25:59;;;;;;;11.07;7.72;;;11.20;74.60;;;;;;5025932;28;20405;-73
2021/12/18 09:28:25;;;;;;;9.82;8.25;;;11.20;74.60;;;;;;5026266;28;20060;-75
2021/12/18 09:30:52;;;;;;;10.27;8.13;;;11.20;74.40;;;;;;5025603;28;20052;-74
2021/12/18 09:33:18;;;;;;;11.18;8.38;;;11.30;74.60;;;;;;5025592;28;20068;-74
2021/12/18 09:35:45;;;;;;;10.05;8.48;;;11.30;74.50;;;;;;5008701;28;20025;-74
2021/12/18 09:38:12;;;;;;;10.82;7.88;;;11.30;74.40;;;;;;5026241;28;20315;-74
2021/12/18 09:40:38;;;;;;;10.05;7.45;;;11.30;74.30;;;;;;5026096;28;20040;-74
2021/12/18 09:43:04;;;;;;;10.65;8.50;;;11.30;74.30;;;;;;5025971;28;20029;-73
2021/12/18 09:45:31;;;;;;;10.88;8.00;;;11.30;74.20;;;;;;5025912;28;20091;-73
2021/12/18 09:47:57;;;;;;;10.38;8.50;;;11.30;74.20;;;;;;5017029;28;20514;-73
2021/12/18 09:50:27;;;;;;;11.45;8.40;;;11.30;74.20;;;;;;5065183;28;20476;-73
2021/12/18 09:52:53;;;;;;;10.82;8.10;;;11.30;74.20;;;;;;5065696;28;20058;-73
2021/12/18 09:55:20;;;;;;;10.75;8.93;;;11.30;74.10;;;;;;5047836;28;20035;-74
2021/12/18 09:57:49;;;;;;;11.18;9.35;;;11.30;74.10;;;;;;5065561;28;20116;-72
2021/12/18 10:00:21;;;;;;;11.52;8.38;;;11.40;74.10;;;;;;5066327;28;20549;-73
2021/12/18 10:02:47;;;;;;;12.10;9.00;;;11.40;74.00;;;;;;5066005;28;20032;-73
2021/12/18 10:05:26;;;;;;;10.63;8.30;;;11.40;74.00;;;;;;5046877;28;20032;-72
2021/12/18 10:08:09;;;;;;;10.60;8.30;;;11.40;73.90;;;;;;5055227;28;20040;-73
2021/12/18 10:10:37;;;;;;;12.50;9.80;;;11.40;73.90;;;;;;5047951;28;20463;-74
2021/12/18 10:13:09;;;;;;;12.43;10.38;;;11.40;73.80;;;;;;5065883;28;20036;-72
2021/12/18 10:15:37;;;;;;;10.88;9.15;;;11.40;73.70;;;;;;5047139;28;20044;-74
2021/12/18 10:18:08;;;;;;;11.40;9.20;;;11.40;73.60;;;;;;5065404;28;20060;-72
2021/12/18 10:20:35;;;;;;;10.40;8.65;;;11.40;73.60;;;;;;5065376;28;20040;-72
2021/12/18 10:23:05;;;;;;;10.32;8.88;;;11.40;73.60;;;;;;5063728;28;20068;-72
2021/12/18 10:25:42;;;;;;;11.85;8.52;;;11.40;73.60;;;;;;5054587;28;20107;-72
2021/12/18 10:28:17;;;;;;;10.48;8.77;;;11.40;73.50;;;;;;5050684;28;20081;-72
2021/12/18 10:30:48;;;;;;;11.50;8.90;;;11.50;73.60;;;;;;5060959;28;20511;-73
2021/12/18 10:33:15;;;;;;;12.60;9.88;;;11.50;73.60;;;;;;5047284;28;20503;-73
2021/12/18 10:35:51;;;;;;;10.95;9.10;;;11.50;73.50;;;;;;5065354;28;20032;-72
2021/12/18 10:38:45;;;;;;;10.32;8.60;;;11.50;73.50;;;;;;5047243;28;20067;-72
2021/12/18 10:41:34;;;;;;;13.02;9.63;;;11.50;73.30;;;;;;5064669;28;20067;-72
2021/12/18 10:44:08;;;;;;;11.90;9.95;;;11.60;73.40;;;;;;5065189;28;20035;-74
2021/12/18 10:46:43;;;;;;;11.75;8.93;;;11.60;73.40;;;;;;5065420;28;20029;-72
2021/12/18 10:49:12;;;;;;;12.20;9.60;;;11.60;73.30;;;;;;5046907;28;20055;-73
2021/12/18 10:51:39;;;;;;;10.05;8.95;;;11.60;73.20;;;;;;5066291;28;20411;-73
2021/12/18 10:54:18;;;;;;;11.73;9.43;;;11.70;73.30;;;;;;5068745;28;20036;-72
2021/12/18 10:56:55;;;;;;;13.05;9.77;;;11.70;73.20;;;;;;5068702;28;20110;-73
2021/12/18 10:59:34;;;;;;;10.80;9.35;;;11.70;73.20;;;;;;5051688;28;20044;-73
2021/12/18 11:02:04;;;;;;;12.82;9.75;;;11.70;73.10;;;;;;5048890;28;20056;-72
2021/12/18 11:04:38;;;;;;;12.50;10.50;;;11.70;73.10;;;;;;5043249;28;20032;-72
2021/12/18 11:07:20;;;;;;;12.38;9.80;;;11.70;73.00;;;;;;5068916;28;20539;-72
2021/12/18 11:10:00;;;;;;;11.13;9.48;;;11.70;72.90;;;;;;5067776;28;20036;-73
2021/12/18 11:15:11;;;;;;;12.50;9.85;;;11.70;72.90;;;;;;5067883;28;20390;-72
2021/12/18 11:17:37;;;;;;;13.10;10.82;;;11.80;73.00;;;;;;5068155;28;20036;-73
2021/12/18 11:20:04;;;;;;;12.77;10.38;;;11.80;73.00;;;;;;5068631;28;20135;-72
2021/12/18 11:22:30;;;;;;;12.48;10.15;;;11.80;72.90;;;;;;5068866;28;20115;-72
2021/12/18 11:25:06;;;;;;;12.30;10.13;;;11.80;72.80;;;;;;5067829;28;20384;-73
2021/12/18 11:27:35;;;;;;;14.15;10.57;;;11.80;72.80;;;;;;5067956;28;20028;-73
2021/12/18 11:30:12;;;;;;;12.85;10.27;;;11.80;72.80;;;;;;5068763;28;20040;-73
2021/12/18 11:32:43;;;;;;;12.25;10.40;;;11.90;72.90;;;;;;5068091;28;20085;-72
2021/12/18 11:35:20;;;;;;;12.07;9.82;;;11.90;72.80;;;;;;5067752;28;20547;-73
2021/12/18 11:38:01;;;;;;;13.32;10.82;;;11.90;72.70;;;;;;5050129;28;20032;-73
2021/12/18 11:40:32;;;;;;;11.93;10.25;;;11.90;72.60;;;;;;5033740;28;20055;-73
2021/12/18 11:42:58;;;;;;;12.43;10.38;;;12.00;72.70;;;;;;5067802;28;20086;-73
2021/12/18 11:45:34;;;;;;;14.02;10.20;;;12.00;72.60;;;;;;5068437;28;20029;-74
2021/12/18 11:48:00;;;;;;;12.50;10.73;;;12.00;72.50;;;;;;5039360;28;20052;-73
2021/12/18 11:50:36;;;;;;;13.63;10.90;;;12.10;72.60;;;;;;5027997;28;20079;-73
2021/12/18 11:53:03;;;;;;;12.93;10.95;;;12.10;72.50;;;;;;5027160;28;20113;-73
2021/12/18 11:55:36;;;;;;;14.27;11.02;;;12.10;72.40;;;;;;5027491;28;20044;-73
2021/12/18 11:58:20;;;;;;;12.00;10.70;;;12.20;72.50;;;;;;5025230;28;20252;-74
2021/12/18 12:00:47;;;;;;;12.50;11.05;;;12.20;72.40;;;;;;5027894;28;20039;-73
2021/12/18 12:03:26;;;;;;;12.73;10.55;;;12.20;72.40;;;;;;5027228;28;20035;-74
2021/12/18 12:05:52;;;;;;;11.82;10.00;;;12.20;72.30;;;;;;5027943;28;20136;-73
2021/12/18 12:08:20;;;;;;;15.77;14.07;;;12.20;72.30;;;;;;5027882;28;20032;-73
2021/12/18 12:11:15;;;;;;;13.45;11.82;;;12.30;72.40;;;;;;5027597;28;20041;-73
2021/12/18 12:14:01;;;;;;;13.88;12.25;;;12.30;72.30;;;;;;5008561;28;20035;-73
2021/12/18 12:16:45;;;;;;;16.88;13.20;;;12.40;72.30;;;;;;5027566;28;20037;-73
2021/12/18 12:19:20;;;;;;;14.30;11.48;;;12.50;72.30;;;;;;5027647;28;20038;-74
2021/12/18 12:21:57;;;;;;;14.23;11.90;;;12.60;72.30;;;;;;5027538;28;20026;-73
2021/12/18 12:24:28;;;;;;;13.68;12.27;;;12.60;72.10;;;;;;5027343;28;20038;-73
2021/12/18 12:27:32;;;;;;;14.48;12.40;;;12.60;72.10;;;;;;5027515;28;20119;-75
2021/12/18 12:30:00;;;;;;;13.23;11.77;;;12.70;72.20;;;;;;5026768;28;20044;-74
2021/12/18 12:32:29;;;;;;;12.75;11.35;;;12.70;72.20;;;;;;5026749;28;20034;-74
2021/12/18 12:35:10;;;;;;;14.30;11.90;;;12.60;72.00;;;;;;5026044;28;20033;-74
2021/12/18 12:37:37;;;;;;;15.43;13.00;;;12.70;72.10;;;;;;5026494;28;20528;-74
2021/12/18 12:40:32;;;;;;;14.07;12.13;;;12.70;72.10;;;;;;5000938;28;20375;-74
2021/12/18 12:43:25;;;;;;;13.73;11.80;;;12.70;72.00;;;;;;5017834;28;20040;-74
2021/12/18 12:45:56;;;;;;;13.25;11.85;;;12.70;71.90;;;;;;5019929;28;20029;-75
2021/12/18 12:48:22;;;;;;;14.32;12.80;;;12.70;71.90;;;;;;5019792;28;20044;-75
2021/12/18 12:51:00;;;;;;;14.05;12.48;;;12.70;71.90;;;;;;5044355;28;20126;-74
2021/12/18 12:53:50;;;;;;;14.38;12.88;;;12.70;71.80;;;;;;5026093;28;20687;-75
2021/12/18 12:56:18;;;;;;;14.70;12.13;;;12.70;71.80;;;;;;5026845;28;20025;-73
2021/12/18 12:58:45;;;;;;;15.65;12.25;;;12.80;72.00;;;;;;5026060;28;20033;-74
2021/12/18 13:01:11;;;;;;;13.63;12.10;;;12.80;72.10;;;;;;5017522;28;20485;-73
2021/12/18 13:03:45;;;;;;;13.85;12.10;;;12.80;72.10;;;;;;5025679;28;20034;-73
2021/12/18 13:06:16;;;;;;;15.40;12.43;;;12.80;72.10;;;;;;5001331;28;20029;-73
2021/12/18 13:08:45;;;;;;;14.25;12.75;;;12.90;72.10;;;;;;5027217;28;20377;-73
2021/12/18 13:11:22;;;;;;;12.68;11.38;;;12.90;72.10;;;;;;5000171;28;20504;-73
2021/12/18 13:13:49;;;;;;;15.35;12.70;;;12.90;72.20;;;;;;5026275;28;20055;-74
2021/12/18 13:16:18;;;;;;;13.13;11.73;;;12.90;72.10;;;;;;5025167;28;20033;-73
2021/12/18 13:18:44;;;;;;;13.45;12.07;;;12.90;72.00;;;;;;4991404;28;20111;-72
2021/12/18 13:21:27;;;;;;;13.73;12.27;;;12.90;72.00;;;;;;5025536;28;20080;-73
2021/12/18 13:23:54;;;;;;;14.40;12.10;;;13.00;72.10;;;;;;5026317;28;20033;-73
2021/12/18 13:26:27;;;;;;;14.85;13.25;;;13.00;72.00;;;;;;5026010;28;20401;-73
2021/12/18 13:29:02;;;;;;;14.20;12.38;;;13.00;71.90;;;;;;5025767;28;20076;-72
2021/12/18 13:31:33;;;;;;;12.50;11.20;;;13.00;71.80;;;;;;5025942;28;20064;-73